sensor_id;sensor_type;location;lat;lon;timestamp;P1;durP1;ratioP1;P2;durP2;ratioP2
67839;SDS011;54636;51.684;5.142;2023-07-22T00:01:08;14.65;;;10.48;;
67839;SDS011;54636;51.684;5.142;2023-07-22T00:03:34;10.68;;;9.45;;
67839;SDS011;54636;51.684;5.142;2023-07-22T00:06:06;13.23;;;10.20;;
67839;SDS011;54636;51.684;5.142;2023-07-22T00:08:33;19.67;;;11.20;;
67839;SDS011;54636;51.684;5.142;2023-07-22T00:11:02;12.98;;;10.75;;
67839;SDS011;54636;51.684;5.142;2023-07-22T00:13:28;11.85;;;10.38;;
67839;SDS011;54636;51.684;5.142;2023-07-22T00:15:54;14.63;;;10.75;;
67839;SDS011;54636;51.684;5.142;2023-07-22T00:18:20;15.02;;;11.45;;
67839;SDS011;54636;51.684;5.142;2023-07-22T00:20:45;17.67;;;10.25;;
67839;SDS011;54636;51.684;5.142;2023-07-22T00:23:10;15.38;;;10.75;;
67839;SDS011;54636;51.684;5.142;2023-07-22T00:25:36;11.90;;;10.60;;
67839;SDS011;54636;51.684;5.142;2023-07-22T00:28:02;17.52;;;10.85;;
67839;SDS011;54636;51.684;5.142;2023-07-22T00:30:29;13.50;;;11.57;;
67839;SDS011;54636;51.684;5.142;2023-07-22T00:32:54;13.75;;;11.88;;
67839;SDS011;54636;51.684;5.142;2023-07-22T00:35:20;15.10;;;10.85;;
67839;SDS011;54636;51.684;5.142;2023-07-22T00:37:46;14.95;;;11.73;;
67839;SDS011;54636;51.684;5.142;2023-07-22T00:40:12;13.90;;;11.63;;
67839;SDS011;54636;51.684;5.142;2023-07-22T00:42:38;15.55;;;10.68;;
67839;SDS011;54636;51.684;5.142;2023-07-22T00:45:03;12.57;;;11.10;;
67839;SDS011;54636;51.684;5.142;2023-07-22T00:47:30;15.35;;;12.00;;
67839;SDS011;54636;51.684;5.142;2023-07-22T00:49:57;14.15;;;11.13;;
67839;SDS011;54636;51.684;5.142;2023-07-22T00:52:24;20.20;;;12.50;;
67839;SDS011;54636;51.684;5.142;2023-07-22T00:54:50;15.82;;;12.50;;
67839;SDS011;54636;51.684;5.142;2023-07-22T00:57:15;14.93;;;11.30;;
67839;SDS011;54636;51.684;5.142;2023-07-22T00:59:40;15.68;;;11.73;;
67839;SDS011;54636;51.684;5.142;2023-07-22T01:02:06;18.38;;;12.60;;
67839;SDS011;54636;51.684;5.142;2023-07-22T01:04:32;19.10;;;12.82;;
67839;SDS011;54636;51.684;5.142;2023-07-22T01:06:59;17.52;;;12.00;;
67839;SDS011;54636;51.684;5.142;2023-07-22T01:09:33;23.90;;;11.90;;
67839;SDS011;54636;51.684;5.142;2023-07-22T01:12:00;16.48;;;11.93;;
67839;SDS011;54636;51.684;5.142;2023-07-22T01:14:25;18.38;;;12.23;;
67839;SDS011;54636;51.684;5.142;2023-07-22T01:16:51;20.83;;;12.30;;
67839;SDS011;54636;51.684;5.142;2023-07-22T01:19:16;12.73;;;11.38;;
67839;SDS011;54636;51.684;5.142;2023-07-22T01:21:43;18.27;;;12.70;;
67839;SDS011;54636;51.684;5.142;2023-07-22T01:24:11;17.75;;;12.10;;
67839;SDS011;54636;51.684;5.142;2023-07-22T01:26:37;15.25;;;11.77;;
67839;SDS011;54636;51.684;5.142;2023-07-22T01:29:03;16.60;;;12.02;;
67839;SDS011;54636;51.684;5.142;2023-07-22T01:31:33;23.38;;;13.10;;
67839;SDS011;54636;51.684;5.142;2023-07-22T01:34:00;17.65;;;12.43;;
67839;SDS011;54636;51.684;5.142;2023-07-22T01:36:25;16.00;;;12.13;;
67839;SDS011;54636;51.684;5.142;2023-07-22T01:38:51;17.77;;;13.32;;
67839;SDS011;54636;51.684;5.142;2023-07-22T01:41:16;17.45;;;12.30;;
67839;SDS011;54636;51.684;5.142;2023-07-22T01:43:41;17.10;;;12.20;;
67839;SDS011;54636;51.684;5.142;2023-07-22T01:46:07;17.58;;;12.38;;
67839;SDS011;54636;51.684;5.142;2023-07-22T01:48:33;19.73;;;12.10;;
67839;SDS011;54636;51.684;5.142;2023-07-22T01:50:58;17.45;;;13.13;;
67839;SDS011;54636;51.684;5.142;2023-07-22T01:53:23;14.65;;;12.65;;
67839;SDS011;54636;51.684;5.142;2023-07-22T01:55:49;20.40;;;12.60;;
67839;SDS011;54636;51.684;5.142;2023-07-22T01:58:14;16.45;;;12.63;;
67839;SDS011;54636;51.684;5.142;2023-07-22T02:00:40;21.52;;;13.18;;
67839;SDS011;54636;51.684;5.142;2023-07-22T02:03:05;19.70;;;12.45;;
67839;SDS011;54636;51.684;5.142;2023-07-22T02:05:30;20.33;;;12.73;;
67839;SDS011;54636;51.684;5.142;2023-07-22T02:07:56;22.73;;;12.07;;
67839;SDS011;54636;51.684;5.142;2023-07-22T02:10:22;19.05;;;11.55;;
67839;SDS011;54636;51.684;5.142;2023-07-22T02:12:47;18.00;;;12.98;;
67839;SDS011;54636;51.684;5.142;2023-07-22T02:15:12;17.55;;;12.25;;
67839;SDS011;54636;51.684;5.142;2023-07-22T02:17:38;18.05;;;12.20;;
67839;SDS011;54636;51.684;5.142;2023-07-22T02:20:03;21.40;;;12.98;;
67839;SDS011;54636;51.684;5.142;2023-07-22T02:22:29;24.13;;;13.63;;
67839;SDS011;54636;51.684;5.142;2023-07-22T02:24:55;17.35;;;12.48;;
67839;SDS011;54636;51.684;5.142;2023-07-22T02:27:20;21.05;;;13.20;;
67839;SDS011;54636;51.684;5.142;2023-07-22T02:29:46;22.80;;;12.73;;
67839;SDS011;54636;51.684;5.142;2023-07-22T02:32:11;19.48;;;12.77;;
67839;SDS011;54636;51.684;5.142;2023-07-22T02:34:37;24.50;;;13.63;;
67839;SDS011;54636;51.684;5.142;2023-07-22T02:37:02;22.38;;;13.80;;
67839;SDS011;54636;51.684;5.142;2023-07-22T02:39:28;19.02;;;12.93;;
67839;SDS011;54636;51.684;5.142;2023-07-22T02:41:53;19.35;;;13.13;;
67839;SDS011;54636;51.684;5.142;2023-07-22T02:44:19;26.55;;;14.23;;
67839;SDS011;54636;51.684;5.142;2023-07-22T02:46:44;18.38;;;13.27;;
67839;SDS011;54636;51.684;5.142;2023-07-22T02:49:09;18.17;;;12.98;;
67839;SDS011;54636;51.684;5.142;2023-07-22T02:51:35;18.63;;;12.45;;
67839;SDS011;54636;51.684;5.142;2023-07-22T02:54:00;23.63;;;13.77;;
67839;SDS011;54636;51.684;5.142;2023-07-22T02:56:26;20.42;;;13.27;;
67839;SDS011;54636;51.684;5.142;2023-07-22T02:58:51;19.77;;;13.05;;
67839;SDS011;54636;51.684;5.142;2023-07-22T03:01:17;22.63;;;13.57;;
67839;SDS011;54636;51.684;5.142;2023-07-22T03:03:44;20.13;;;12.63;;
67839;SDS011;54636;51.684;5.142;2023-07-22T03:06:09;25.38;;;13.02;;
67839;SDS011;54636;51.684;5.142;2023-07-22T03:08:35;23.02;;;13.20;;
67839;SDS011;54636;51.684;5.142;2023-07-22T03:11:01;17.98;;;12.73;;
67839;SDS011;54636;51.684;5.142;2023-07-22T03:13:26;20.95;;;12.98;;
67839;SDS011;54636;51.684;5.142;2023-07-22T03:15:55;21.83;;;13.63;;
67839;SDS011;54636;51.684;5.142;2023-07-22T03:18:21;24.45;;;13.48;;
67839;SDS011;54636;51.684;5.142;2023-07-22T03:20:46;17.90;;;12.55;;
67839;SDS011;54636;51.684;5.142;2023-07-22T03:23:11;23.95;;;13.80;;
67839;SDS011;54636;51.684;5.142;2023-07-22T03:25:37;23.55;;;13.98;;
67839;SDS011;54636;51.684;5.142;2023-07-22T03:28:03;24.98;;;12.85;;
67839;SDS011;54636;51.684;5.142;2023-07-22T03:30:30;23.33;;;14.40;;
67839;SDS011;54636;51.684;5.142;2023-07-22T03:32:55;19.73;;;13.82;;
67839;SDS011;54636;51.684;5.142;2023-07-22T03:35:22;24.80;;;15.00;;
67839;SDS011;54636;51.684;5.142;2023-07-22T03:37:47;21.52;;;14.98;;
67839;SDS011;54636;51.684;5.142;2023-07-22T03:40:13;22.10;;;14.35;;
67839;SDS011;54636;51.684;5.142;2023-07-22T03:42:44;29.95;;;15.98;;
67839;SDS011;54636;51.684;5.142;2023-07-22T03:45:10;24.05;;;14.88;;
67839;SDS011;54636;51.684;5.142;2023-07-22T03:47:36;22.58;;;14.65;;
67839;SDS011;54636;51.684;5.142;2023-07-22T03:50:03;20.70;;;15.55;;
67839;SDS011;54636;51.684;5.142;2023-07-22T03:52:29;22.13;;;15.73;;
67839;SDS011;54636;51.684;5.142;2023-07-22T03:54:54;24.85;;;15.75;;
67839;SDS011;54636;51.684;5.142;2023-07-22T03:57:24;27.50;;;15.55;;
67839;SDS011;54636;51.684;5.142;2023-07-22T03:59:50;22.40;;;15.50;;
67839;SDS011;54636;51.684;5.142;2023-07-22T04:02:16;22.35;;;15.57;;
67839;SDS011;54636;51.684;5.142;2023-07-22T04:04:41;28.23;;;16.73;;
67839;SDS011;54636;51.684;5.142;2023-07-22T04:07:06;23.52;;;15.98;;
67839;SDS011;54636;51.684;5.142;2023-07-22T04:09:33;25.95;;;16.05;;
67839;SDS011;54636;51.684;5.142;2023-07-22T04:11:58;25.33;;;16.20;;
67839;SDS011;54636;51.684;5.142;2023-07-22T04:14:23;21.80;;;16.23;;
67839;SDS011;54636;51.684;5.142;2023-07-22T04:16:49;24.05;;;16.48;;
67839;SDS011;54636;51.684;5.142;2023-07-22T04:19:15;24.98;;;15.15;;
67839;SDS011;54636;51.684;5.142;2023-07-22T04:21:41;24.70;;;16.35;;
67839;SDS011;54636;51.684;5.142;2023-07-22T04:24:07;28.63;;;16.83;;
67839;SDS011;54636;51.684;5.142;2023-07-22T04:26:32;23.02;;;15.85;;
67839;SDS011;54636;51.684;5.142;2023-07-22T04:28:57;21.48;;;14.70;;
67839;SDS011;54636;51.684;5.142;2023-07-22T04:31:23;27.38;;;16.17;;
67839;SDS011;54636;51.684;5.142;2023-07-22T04:33:48;24.27;;;15.00;;
67839;SDS011;54636;51.684;5.142;2023-07-22T04:36:14;25.33;;;15.02;;
67839;SDS011;54636;51.684;5.142;2023-07-22T04:38:39;21.75;;;14.70;;
67839;SDS011;54636;51.684;5.142;2023-07-22T04:41:05;22.67;;;14.60;;
67839;SDS011;54636;51.684;5.142;2023-07-22T04:43:30;22.80;;;14.52;;
67839;SDS011;54636;51.684;5.142;2023-07-22T04:45:56;19.48;;;13.77;;
67839;SDS011;54636;51.684;5.142;2023-07-22T04:48:21;17.90;;;13.43;;
67839;SDS011;54636;51.684;5.142;2023-07-22T04:50:49;22.00;;;14.63;;
67839;SDS011;54636;51.684;5.142;2023-07-22T04:53:16;23.33;;;14.73;;
67839;SDS011;54636;51.684;5.142;2023-07-22T04:55:43;17.67;;;13.73;;
67839;SDS011;54636;51.684;5.142;2023-07-22T04:58:09;19.58;;;13.45;;
67839;SDS011;54636;51.684;5.142;2023-07-22T05:00:35;20.42;;;13.45;;
67839;SDS011;54636;51.684;5.142;2023-07-22T05:03:02;20.08;;;13.85;;
67839;SDS011;54636;51.684;5.142;2023-07-22T05:05:28;21.08;;;14.07;;
67839;SDS011;54636;51.684;5.142;2023-07-22T05:07:53;24.67;;;13.90;;
67839;SDS011;54636;51.684;5.142;2023-07-22T05:10:19;18.65;;;13.75;;
67839;SDS011;54636;51.684;5.142;2023-07-22T05:12:44;21.10;;;13.48;;
67839;SDS011;54636;51.684;5.142;2023-07-22T05:15:10;18.92;;;12.90;;
67839;SDS011;54636;51.684;5.142;2023-07-22T05:17:37;15.05;;;11.93;;
67839;SDS011;54636;51.684;5.142;2023-07-22T05:20:03;25.00;;;12.95;;
67839;SDS011;54636;51.684;5.142;2023-07-22T05:22:31;17.02;;;13.05;;
67839;SDS011;54636;51.684;5.142;2023-07-22T05:24:57;16.33;;;11.25;;
67839;SDS011;54636;51.684;5.142;2023-07-22T05:27:22;20.27;;;14.00;;
67839;SDS011;54636;51.684;5.142;2023-07-22T05:29:47;16.67;;;12.00;;
67839;SDS011;54636;51.684;5.142;2023-07-22T05:32:13;19.02;;;12.13;;
67839;SDS011;54636;51.684;5.142;2023-07-22T05:34:38;20.38;;;12.73;;
67839;SDS011;54636;51.684;5.142;2023-07-22T05:37:03;19.80;;;12.93;;
67839;SDS011;54636;51.684;5.142;2023-07-22T05:39:29;21.33;;;12.25;;
67839;SDS011;54636;51.684;5.142;2023-07-22T05:41:54;20.08;;;13.15;;
67839;SDS011;54636;51.684;5.142;2023-07-22T05:44:20;17.40;;;12.23;;
67839;SDS011;54636;51.684;5.142;2023-07-22T05:46:46;21.10;;;13.13;;
67839;SDS011;54636;51.684;5.142;2023-07-22T05:49:11;16.23;;;11.52;;
67839;SDS011;54636;51.684;5.142;2023-07-22T05:51:37;19.52;;;13.00;;
67839;SDS011;54636;51.684;5.142;2023-07-22T05:54:02;18.40;;;12.45;;
67839;SDS011;54636;51.684;5.142;2023-07-22T05:56:28;20.80;;;12.77;;
67839;SDS011;54636;51.684;5.142;2023-07-22T05:58:53;18.55;;;12.85;;
67839;SDS011;54636;51.684;5.142;2023-07-22T06:01:19;16.55;;;12.93;;
67839;SDS011;54636;51.684;5.142;2023-07-22T06:03:45;13.60;;;11.68;;
67839;SDS011;54636;51.684;5.142;2023-07-22T06:06:10;17.25;;;11.38;;
67839;SDS011;54636;51.684;5.142;2023-07-22T06:08:36;23.38;;;11.80;;
67839;SDS011;54636;51.684;5.142;2023-07-22T06:11:01;20.42;;;12.32;;
67839;SDS011;54636;51.684;5.142;2023-07-22T06:13:26;24.42;;;11.77;;
67839;SDS011;54636;51.684;5.142;2023-07-22T06:15:52;19.17;;;11.52;;
67839;SDS011;54636;51.684;5.142;2023-07-22T06:18:18;18.35;;;11.82;;
67839;SDS011;54636;51.684;5.142;2023-07-22T06:20:43;17.30;;;11.88;;
67839;SDS011;54636;51.684;5.142;2023-07-22T06:23:09;19.10;;;12.07;;
67839;SDS011;54636;51.684;5.142;2023-07-22T06:25:34;13.88;;;11.20;;
67839;SDS011;54636;51.684;5.142;2023-07-22T06:28:00;14.98;;;11.68;;
67839;SDS011;54636;51.684;5.142;2023-07-22T06:30:26;12.98;;;9.50;;
67839;SDS011;54636;51.684;5.142;2023-07-22T06:32:52;15.98;;;11.65;;
67839;SDS011;54636;51.684;5.142;2023-07-22T06:35:17;16.40;;;11.68;;
67839;SDS011;54636;51.684;5.142;2023-07-22T06:37:43;15.65;;;11.20;;
67839;SDS011;54636;51.684;5.142;2023-07-22T06:40:08;20.77;;;11.45;;
67839;SDS011;54636;51.684;5.142;2023-07-22T06:42:34;15.55;;;11.00;;
67839;SDS011;54636;51.684;5.142;2023-07-22T06:44:59;13.15;;;9.93;;
67839;SDS011;54636;51.684;5.142;2023-07-22T06:47:25;14.25;;;11.63;;
67839;SDS011;54636;51.684;5.142;2023-07-22T06:49:50;22.98;;;10.40;;
67839;SDS011;54636;51.684;5.142;2023-07-22T06:52:16;13.50;;;10.18;;
67839;SDS011;54636;51.684;5.142;2023-07-22T06:54:41;16.27;;;10.73;;
67839;SDS011;54636;51.684;5.142;2023-07-22T06:57:07;18.60;;;10.98;;
67839;SDS011;54636;51.684;5.142;2023-07-22T06:59:32;18.50;;;10.95;;
67839;SDS011;54636;51.684;5.142;2023-07-22T07:01:58;16.50;;;9.85;;
67839;SDS011;54636;51.684;5.142;2023-07-22T07:04:24;15.85;;;9.82;;
67839;SDS011;54636;51.684;5.142;2023-07-22T07:06:49;19.50;;;10.27;;
67839;SDS011;54636;51.684;5.142;2023-07-22T07:09:15;16.65;;;9.70;;
67839;SDS011;54636;51.684;5.142;2023-07-22T07:11:40;14.55;;;7.65;;
67839;SDS011;54636;51.684;5.142;2023-07-22T07:14:06;14.07;;;9.13;;
67839;SDS011;54636;51.684;5.142;2023-07-22T07:16:32;18.13;;;9.85;;
67839;SDS011;54636;51.684;5.142;2023-07-22T07:18:58;16.92;;;9.25;;
67839;SDS011;54636;51.684;5.142;2023-07-22T07:21:25;16.50;;;8.82;;
67839;SDS011;54636;51.684;5.142;2023-07-22T07:23:51;15.35;;;9.43;;
67839;SDS011;54636;51.684;5.142;2023-07-22T07:26:17;18.77;;;9.50;;
67839;SDS011;54636;51.684;5.142;2023-07-22T07:28:44;17.65;;;8.25;;
67839;SDS011;54636;51.684;5.142;2023-07-22T07:31:09;15.65;;;8.00;;
67839;SDS011;54636;51.684;5.142;2023-07-22T07:33:35;13.55;;;8.45;;
67839;SDS011;54636;51.684;5.142;2023-07-22T07:36:01;10.90;;;8.68;;
67839;SDS011;54636;51.684;5.142;2023-07-22T07:38:28;19.63;;;9.00;;
67839;SDS011;54636;51.684;5.142;2023-07-22T07:40:58;13.75;;;9.82;;
67839;SDS011;54636;51.684;5.142;2023-07-22T07:43:25;11.95;;;8.88;;
67839;SDS011;54636;51.684;5.142;2023-07-22T07:46:11;11.45;;;9.30;;
67839;SDS011;54636;51.684;5.142;2023-07-22T07:48:47;13.57;;;8.25;;
67839;SDS011;54636;51.684;5.142;2023-07-22T07:51:14;14.00;;;9.35;;
67839;SDS011;54636;51.684;5.142;2023-07-22T07:53:40;14.60;;;9.38;;
67839;SDS011;54636;51.684;5.142;2023-07-22T07:56:08;10.30;;;7.53;;
67839;SDS011;54636;51.684;5.142;2023-07-22T07:58:34;14.65;;;8.27;;
67839;SDS011;54636;51.684;5.142;2023-07-22T08:00:59;15.88;;;8.70;;
67839;SDS011;54636;51.684;5.142;2023-07-22T08:03:25;10.30;;;7.50;;
67839;SDS011;54636;51.684;5.142;2023-07-22T08:05:50;13.20;;;7.60;;
67839;SDS011;54636;51.684;5.142;2023-07-22T08:08:16;16.13;;;8.10;;
67839;SDS011;54636;51.684;5.142;2023-07-22T08:10:41;12.95;;;8.10;;
67839;SDS011;54636;51.684;5.142;2023-07-22T08:13:09;12.18;;;7.97;;
67839;SDS011;54636;51.684;5.142;2023-07-22T08:15:34;10.43;;;7.50;;
67839;SDS011;54636;51.684;5.142;2023-07-22T08:18:00;13.80;;;7.57;;
67839;SDS011;54636;51.684;5.142;2023-07-22T08:20:25;8.63;;;7.38;;
67839;SDS011;54636;51.684;5.142;2023-07-22T08:22:51;9.43;;;7.30;;
67839;SDS011;54636;51.684;5.142;2023-07-22T08:25:16;18.13;;;6.55;;
67839;SDS011;54636;51.684;5.142;2023-07-22T08:27:42;13.90;;;7.00;;
67839;SDS011;54636;51.684;5.142;2023-07-22T08:30:07;12.25;;;6.80;;
67839;SDS011;54636;51.684;5.142;2023-07-22T08:32:33;8.98;;;5.85;;
67839;SDS011;54636;51.684;5.142;2023-07-22T08:34:58;16.77;;;6.20;;
67839;SDS011;54636;51.684;5.142;2023-07-22T08:37:24;13.55;;;5.90;;
67839;SDS011;54636;51.684;5.142;2023-07-22T08:39:49;9.75;;;5.80;;
67839;SDS011;54636;51.684;5.142;2023-07-22T08:42:15;10.73;;;5.90;;
67839;SDS011;54636;51.684;5.142;2023-07-22T08:44:44;10.88;;;5.22;;
67839;SDS011;54636;51.684;5.142;2023-07-22T08:49:41;10.70;;;5.53;;
67839;SDS011;54636;51.684;5.142;2023-07-22T08:52:14;5.82;;;4.65;;
67839;SDS011;54636;51.684;5.142;2023-07-22T08:54:40;11.30;;;6.07;;
67839;SDS011;54636;51.684;5.142;2023-07-22T08:57:08;13.88;;;5.63;;
67839;SDS011;54636;51.684;5.142;2023-07-22T08:59:36;6.88;;;5.25;;
67839;SDS011;54636;51.684;5.142;2023-07-22T09:02:02;8.43;;;4.55;;
67839;SDS011;54636;51.684;5.142;2023-07-22T09:04:28;13.23;;;5.20;;
67839;SDS011;54636;51.684;5.142;2023-07-22T09:06:54;5.50;;;4.53;;
67839;SDS011;54636;51.684;5.142;2023-07-22T09:09:21;10.75;;;4.68;;
67839;SDS011;54636;51.684;5.142;2023-07-22T09:11:47;10.27;;;3.67;;
67839;SDS011;54636;51.684;5.142;2023-07-22T09:14:17;5.60;;;3.80;;
67839;SDS011;54636;51.684;5.142;2023-07-22T09:16:44;6.50;;;4.18;;
67839;SDS011;54636;51.684;5.142;2023-07-22T09:19:09;6.70;;;4.05;;
67839;SDS011;54636;51.684;5.142;2023-07-22T09:21:35;5.85;;;4.05;;
67839;SDS011;54636;51.684;5.142;2023-07-22T09:24:19;6.20;;;4.03;;
67839;SDS011;54636;51.684;5.142;2023-07-22T09:26:49;6.68;;;3.40;;
67839;SDS011;54636;51.684;5.142;2023-07-22T09:29:16;5.32;;;3.28;;
67839;SDS011;54636;51.684;5.142;2023-07-22T09:31:48;6.95;;;4.18;;
67839;SDS011;54636;51.684;5.142;2023-07-22T09:34:16;10.07;;;4.05;;
67839;SDS011;54636;51.684;5.142;2023-07-22T09:36:48;6.78;;;3.28;;
67839;SDS011;54636;51.684;5.142;2023-07-22T09:39:17;6.13;;;3.30;;
67839;SDS011;54636;51.684;5.142;2023-07-22T09:41:43;9.23;;;2.97;;
67839;SDS011;54636;51.684;5.142;2023-07-22T09:44:11;6.53;;;3.53;;
67839;SDS011;54636;51.684;5.142;2023-07-22T09:46:37;4.25;;;2.92;;
67839;SDS011;54636;51.684;5.142;2023-07-22T09:49:03;5.68;;;2.90;;
67839;SDS011;54636;51.684;5.142;2023-07-22T09:51:34;4.43;;;3.03;;
67839;SDS011;54636;51.684;5.142;2023-07-22T09:54:06;4.45;;;2.70;;
67839;SDS011;54636;51.684;5.142;2023-07-22T09:56:32;3.55;;;3.03;;
67839;SDS011;54636;51.684;5.142;2023-07-22T09:59:08;5.80;;;2.75;;
67839;SDS011;54636;51.684;5.142;2023-07-22T10:01:37;4.03;;;3.22;;
67839;SDS011;54636;51.684;5.142;2023-07-22T10:04:04;4.70;;;3.08;;
67839;SDS011;54636;51.684;5.142;2023-07-22T10:06:30;6.00;;;3.47;;
67839;SDS011;54636;51.684;5.142;2023-07-22T10:08:57;4.82;;;3.40;;
67839;SDS011;54636;51.684;5.142;2023-07-22T10:11:27;6.22;;;3.40;;
67839;SDS011;54636;51.684;5.142;2023-07-22T10:13:53;4.93;;;3.33;;
67839;SDS011;54636;51.684;5.142;2023-07-22T10:16:20;6.00;;;3.30;;
67839;SDS011;54636;51.684;5.142;2023-07-22T10:18:48;8.38;;;3.05;;
67839;SDS011;54636;51.684;5.142;2023-07-22T10:21:14;5.13;;;2.63;;
67839;SDS011;54636;51.684;5.142;2023-07-22T10:23:40;5.03;;;2.95;;
67839;SDS011;54636;51.684;5.142;2023-07-22T10:26:06;5.15;;;2.92;;
67839;SDS011;54636;51.684;5.142;2023-07-22T10:28:32;4.88;;;2.95;;
67839;SDS011;54636;51.684;5.142;2023-07-22T10:30:58;4.32;;;3.33;;
67839;SDS011;54636;51.684;5.142;2023-07-22T10:33:24;4.03;;;3.20;;
67839;SDS011;54636;51.684;5.142;2023-07-22T10:36:12;6.18;;;2.60;;
67839;SDS011;54636;51.684;5.142;2023-07-22T10:38:39;2.90;;;2.13;;
67839;SDS011;54636;51.684;5.142;2023-07-22T10:41:14;2.78;;;2.47;;
67839;SDS011;54636;51.684;5.142;2023-07-22T10:43:54;5.40;;;2.55;;
67839;SDS011;54636;51.684;5.142;2023-07-22T10:47:22;4.45;;;2.90;;
67839;SDS011;54636;51.684;5.142;2023-07-22T10:49:22;4.05;;;2.33;;
67839;SDS011;54636;51.684;5.142;2023-07-22T10:51:48;2.15;;;1.90;;
67839;SDS011;54636;51.684;5.142;2023-07-22T10:54:15;6.57;;;2.55;;
67839;SDS011;54636;51.684;5.142;2023-07-22T10:57:00;3.30;;;2.75;;
67839;SDS011;54636;51.684;5.142;2023-07-22T10:59:28;3.92;;;1.70;;
67839;SDS011;54636;51.684;5.142;2023-07-22T11:01:59;3.17;;;1.90;;
67839;SDS011;54636;51.684;5.142;2023-07-22T11:04:24;4.20;;;2.00;;
67839;SDS011;54636;51.684;5.142;2023-07-22T11:06:58;4.22;;;2.28;;
67839;SDS011;54636;51.684;5.142;2023-07-22T11:14:30;9.95;;;2.38;;
67839;SDS011;54636;51.684;5.142;2023-07-22T11:17:12;2.88;;;2.28;;
67839;SDS011;54636;51.684;5.142;2023-07-22T11:19:39;4.55;;;2.42;;
67839;SDS011;54636;51.684;5.142;2023-07-22T11:22:04;4.30;;;1.90;;
67839;SDS011;54636;51.684;5.142;2023-07-22T11:24:32;2.72;;;1.65;;
67839;SDS011;54636;51.684;5.142;2023-07-22T11:27:00;3.47;;;1.67;;
67839;SDS011;54636;51.684;5.142;2023-07-22T11:29:28;10.40;;;2.10;;
67839;SDS011;54636;51.684;5.142;2023-07-22T11:31:53;3.20;;;1.83;;
67839;SDS011;54636;51.684;5.142;2023-07-22T11:34:19;3.55;;;1.92;;
67839;SDS011;54636;51.684;5.142;2023-07-22T11:36:49;6.65;;;2.67;;
67839;SDS011;54636;51.684;5.142;2023-07-22T11:39:20;3.20;;;2.10;;
67839;SDS011;54636;51.684;5.142;2023-07-22T11:41:47;2.47;;;1.92;;
67839;SDS011;54636;51.684;5.142;2023-07-22T11:44:14;7.30;;;1.95;;
67839;SDS011;54636;51.684;5.142;2023-07-22T11:46:56;5.65;;;1.95;;
67839;SDS011;54636;51.684;5.142;2023-07-22T11:52:24;3.33;;;2.13;;
67839;SDS011;54636;51.684;5.142;2023-07-22T11:54:50;2.33;;;1.80;;
67839;SDS011;54636;51.684;5.142;2023-07-22T11:57:22;8.73;;;1.75;;
67839;SDS011;54636;51.684;5.142;2023-07-22T11:59:49;3.35;;;1.60;;
67839;SDS011;54636;51.684;5.142;2023-07-22T12:02:17;4.30;;;1.58;;
67839;SDS011;54636;51.684;5.142;2023-07-22T12:04:50;2.50;;;2.00;;
67839;SDS011;54636;51.684;5.142;2023-07-22T12:09:54;1.90;;;1.80;;
67839;SDS011;54636;51.684;5.142;2023-07-22T12:12:21;3.22;;;1.80;;
67839;SDS011;54636;51.684;5.142;2023-07-22T12:15:01;3.25;;;1.77;;
67839;SDS011;54636;51.684;5.142;2023-07-22T12:17:29;3.00;;;1.90;;
67839;SDS011;54636;51.684;5.142;2023-07-22T12:19:54;2.42;;;1.88;;
67839;SDS011;54636;51.684;5.142;2023-07-22T12:22:20;3.63;;;2.05;;
67839;SDS011;54636;51.684;5.142;2023-07-22T12:24:48;3.25;;;2.13;;
67839;SDS011;54636;51.684;5.142;2023-07-22T12:27:14;3.70;;;2.42;;
67839;SDS011;54636;51.684;5.142;2023-07-22T12:29:40;5.22;;;2.10;;
67839;SDS011;54636;51.684;5.142;2023-07-22T12:32:05;3.80;;;2.00;;
67839;SDS011;54636;51.684;5.142;2023-07-22T12:34:31;4.45;;;2.20;;
67839;SDS011;54636;51.684;5.142;2023-07-22T12:36:56;5.18;;;2.03;;
67839;SDS011;54636;51.684;5.142;2023-07-22T12:39:22;9.63;;;2.17;;
67839;SDS011;54636;51.684;5.142;2023-07-22T12:41:47;7.82;;;2.40;;
67839;SDS011;54636;51.684;5.142;2023-07-22T12:44:12;7.55;;;1.92;;
67839;SDS011;54636;51.684;5.142;2023-07-22T12:46:38;6.72;;;2.03;;
67839;SDS011;54636;51.684;5.142;2023-07-22T12:49:03;4.00;;;2.30;;
67839;SDS011;54636;51.684;5.142;2023-07-22T12:51:30;5.15;;;1.98;;
67839;SDS011;54636;51.684;5.142;2023-07-22T12:53:56;3.17;;;2.47;;
67839;SDS011;54636;51.684;5.142;2023-07-22T12:56:21;4.40;;;2.20;;
67839;SDS011;54636;51.684;5.142;2023-07-22T12:58:46;4.20;;;2.10;;
67839;SDS011;54636;51.684;5.142;2023-07-22T13:01:12;2.75;;;1.70;;
67839;SDS011;54636;51.684;5.142;2023-07-22T13:03:38;2.75;;;1.85;;
67839;SDS011;54636;51.684;5.142;2023-07-22T13:06:03;2.38;;;2.17;;
67839;SDS011;54636;51.684;5.142;2023-07-22T13:08:29;3.30;;;2.10;;
67839;SDS011;54636;51.684;5.142;2023-07-22T13:10:55;4.10;;;2.50;;
67839;SDS011;54636;51.684;5.142;2023-07-22T13:13:20;9.85;;;2.53;;
67839;SDS011;54636;51.684;5.142;2023-07-22T13:15:45;5.25;;;2.17;;
67839;SDS011;54636;51.684;5.142;2023-07-22T13:18:11;5.03;;;2.50;;
67839;SDS011;54636;51.684;5.142;2023-07-22T13:20:38;7.20;;;2.70;;
67839;SDS011;54636;51.684;5.142;2023-07-22T13:23:04;5.25;;;2.47;;
67839;SDS011;54636;51.684;5.142;2023-07-22T13:25:29;9.05;;;2.40;;
67839;SDS011;54636;51.684;5.142;2023-07-22T13:27:55;3.33;;;2.10;;
67839;SDS011;54636;51.684;5.142;2023-07-22T13:30:21;5.45;;;2.40;;
67839;SDS011;54636;51.684;5.142;2023-07-22T13:32:46;4.20;;;2.58;;
67839;SDS011;54636;51.684;5.142;2023-07-22T13:35:12;6.80;;;2.05;;
67839;SDS011;54636;51.684;5.142;2023-07-22T13:37:38;7.47;;;2.20;;
67839;SDS011;54636;51.684;5.142;2023-07-22T13:40:04;4.28;;;2.10;;
67839;SDS011;54636;51.684;5.142;2023-07-22T13:42:35;2.10;;;1.85;;
67839;SDS011;54636;51.684;5.142;2023-07-22T13:45:00;4.88;;;2.33;;
67839;SDS011;54636;51.684;5.142;2023-07-22T13:47:25;5.53;;;1.75;;
67839;SDS011;54636;51.684;5.142;2023-07-22T13:49:51;3.70;;;2.15;;
67839;SDS011;54636;51.684;5.142;2023-07-22T13:52:16;5.07;;;2.42;;
67839;SDS011;54636;51.684;5.142;2023-07-22T13:54:41;6.57;;;2.10;;
67839;SDS011;54636;51.684;5.142;2023-07-22T13:57:09;7.30;;;2.28;;
67839;SDS011;54636;51.684;5.142;2023-07-22T13:59:35;3.40;;;2.33;;
67839;SDS011;54636;51.684;5.142;2023-07-22T14:02:00;9.48;;;2.60;;
67839;SDS011;54636;51.684;5.142;2023-07-22T14:04:25;6.38;;;2.10;;
67839;SDS011;54636;51.684;5.142;2023-07-22T14:06:51;6.32;;;2.03;;
67839;SDS011;54636;51.684;5.142;2023-07-22T14:09:16;2.30;;;2.05;;
67839;SDS011;54636;51.684;5.142;2023-07-22T14:11:41;4.38;;;3.17;;
67839;SDS011;54636;51.684;5.142;2023-07-22T14:14:07;8.63;;;2.28;;
67839;SDS011;54636;51.684;5.142;2023-07-22T14:16:32;5.03;;;2.25;;
67839;SDS011;54636;51.684;5.142;2023-07-22T14:18:58;12.27;;;2.75;;
67839;SDS011;54636;51.684;5.142;2023-07-22T14:21:24;3.80;;;2.33;;
67839;SDS011;54636;51.684;5.142;2023-07-22T14:23:49;3.35;;;2.00;;
67839;SDS011;54636;51.684;5.142;2023-07-22T14:26:14;4.72;;;2.03;;
67839;SDS011;54636;51.684;5.142;2023-07-22T14:28:40;3.42;;;1.98;;
67839;SDS011;54636;51.684;5.142;2023-07-22T14:31:05;5.20;;;2.38;;
67839;SDS011;54636;51.684;5.142;2023-07-22T14:33:31;8.00;;;2.30;;
67839;SDS011;54636;51.684;5.142;2023-07-22T14:35:56;4.60;;;2.22;;
67839;SDS011;54636;51.684;5.142;2023-07-22T14:38:22;4.80;;;2.65;;
67839;SDS011;54636;51.684;5.142;2023-07-22T14:40:47;3.20;;;1.92;;
67839;SDS011;54636;51.684;5.142;2023-07-22T14:43:12;2.90;;;1.90;;